Aeroporto :
LOGIN :

Iscrizione | Disclaimer

   EN    FR    IT 

 










Sommario :    VFR   VFR Marginale   IFR   IFR Intensivo   IFR Molto Intensivo
Visibilità : 
Base nubi : 
>= 8 km
>= 3000ft
5 / 8 km
1000 / 3000 ft
1500m / 5 km
500 / 1000 ft
800 / 1500m
200 / 500 ft
< 800m
< 200 ft
Simboli :   Temporali  Nebbia  Neve Forte  Precipitazioni Forti  Vento > 20 kt
SIGMETs :   Varie  Temporali  Ghiacco  Turbolenza  Onda orograficha  Ceneri Vulcaniche






- Altitudine del aeroporto : 29 ft


LIRM - Grazzanise Caserta

ULTIMO METAR :
  • 171655Z 16006KT 9999 -RA SCT015 FEW025TCU BKN080 14/12 Q1006 RMK OVC VIS MIN 9999 WIND THR06 15006KT BLU

METARs OBSOLETI :
  • 171555Z 17005KT 9999 -RA SCT020 FEW025TCU BKN080 14/11 Q1006 RMK OVC VIS MIN 9999 WIND THR06 16007KT BLU
  • 171455Z 18005KT 9999 -RA SCT020 FEW025TCU BKN080 14/11 Q1006 RMK BKN VIS MIN 9999 WIND THR06 17006KT BLU

TAF TAF LIRM
Valido dal 17 a 15 ore il 18 a 00 ore UTC


171400Z 1715/1724 25010KT 8000 SCT020 BKN050
TEMPO 1715/1721 17010KT 5000 RA BKN020
PROB40
TEMPO 1715/1718 27016G27KT 3500 TSRA FEW016CB



MetMap, La meteo Aeronautica in un colpo d'occhio ! - Copyright ORBIFLY Dicembre 2007 - Disclaimer

ORBIFLY MET'MAP TEAM :

Programmazione e sviluppo : Alexandra Zaïnal
Concezione e sviluppo : Baudouin d'Aumeries
Co-Programmazione e sviluppo : Marc-Olivier Méhu
Supporto tecnico e logistico : Manuel Goepfert
Aiuto per la traduzione : Arnaldo La Scala

Contatto : metmap@orbifly.com




FONTI E CREDITI :

   NOAA